Airfield :
LOGIN :

Register | Disclaimer

   EN    FR    IT 

 










Legend :    VFR   Marginal VFR   IFR   Intensive IFR   Very Intensive IFR
Visi :
Ceiling :
>= 8 km
>= 3000ft
5 to 8 km
1000 to 3000 ft
1500m to 5 km
500 to 1000 ft
800 to 1500m
200 to 500 ft
< 800m
< 200 ft
Symbols :   Thunderstorms  Fog  Heavy snow  Heavy precipitations  Wind > 20 kt
SIGMETs :     Misc.  Thunderstorms  Icing  Turbulence  Mountain Waves  Volcanic Ashes







- Airport Elevation : 794 ft


LKCV - Čáslav Air Base

CURRENT METAR :
  • 181800Z 03003KT CAVOK 02/M06 Q1022 NOSIG RMK BLU BLU

EXPIRED METARs :
  • 181700Z 32004KT CAVOK 02/M04 Q1022 NOSIG RMK BLU BLU
  • 181600Z 31003KT CAVOK 02/M03 Q1023 NOSIG RMK BLU BLU

TAF TAF LKCV
Valid from the 18 at 18:00 until the 19 at 18:00 UTC


181700Z 1818/1918 28004KT CAVOK
BECMG 1820/1822 BKN030
TEMPO 1900/1908 6000 SN BKN020 OVC040
PROB40
TEMPO 1902/1906 3000 SN SCT005 BKN010 OVC020
BECMG 1911/1913 09008KT
TEMPO 1914/1918 6000 SNRA BKN020 OVC040
No reported NOTAMs for that airfield.
2 SIGMETs reported for the Praha FIR (LKAA) :
 
Severe turbulence
LKAA SIGMET 3 VALID 181830/182100 LKPW
LKAA PRAHA FIR SEV TURB FCST SE OF LINE N5021 E01834 - N4857 E01502 FL300/370 MOV SSW WKN=
Severe turbulence
LKAA SIGMET 2 VALID 181436/181830 LKPW
LKAA PRAHA FIR SEV TURB FCST ENTIRE FIR FL320/400 MOV SSW WKN=



MET'MAP, your aeronautical weather chart ! - Copyright ORBIFLY December 2007 - Disclaimer

ORBIFLY MET'MAP TEAM :

Programming & Development : Alexandra Zaïnal
Concept & Development : Baudouin d'Aumeries
Co-Development & Prog : Marc-Olivier Méhu
Technical & hardware support : Manuel Goepfert

Contact : metmap@orbifly.com




SOURCES & CREDITS :

   NOAA